createdAt,value
2022-10-22T01:16:03.257Z,100288.50
2022-10-22T01:18:55.413Z,100279.84
2022-10-22T01:21:27.066Z,100273.66
2022-10-22T01:24:34.129Z,100274.53
2022-10-22T01:27:11.856Z,100281.69
2022-10-22T01:29:58.045Z,100289.56
2022-10-22T01:32:26.235Z,100295.78
2022-10-22T01:34:56.404Z,100294.91
2022-10-22T01:37:24.349Z,100289.63
2022-10-22T01:39:52.139Z,100309.03
2022-10-22T01:42:18.733Z,100316.03
2022-10-22T01:44:45.422Z,100314.22
2022-10-22T01:47:27.720Z,100308.97
2022-10-22T01:50:32.179Z,100308.16
2022-10-22T01:53:18.098Z,100315.19
2022-10-22T01:56:00.869Z,100309.94
2022-10-22T01:58:36.536Z,100306.44
2022-10-22T02:17:29.383Z,100313.03
2022-10-22T02:20:01.849Z,100315.69
2022-10-22T02:22:31.702Z,100315.72
2022-10-22T02:24:59.255Z,100303.41
2022-10-22T02:27:30.528Z,100300.81
2022-10-22T02:30:02.651Z,100297.28
2022-10-22T02:32:34.539Z,100312.28
2022-10-22T02:35:01.955Z,100307.06
2022-10-22T02:37:28.824Z,100307.97
2022-10-22T02:39:56.437Z,100301.75
2022-10-22T02:42:25.273Z,100306.19
2022-10-22T02:44:52.616Z,100307.97
2022-10-22T02:47:19.469Z,100314.13
2022-10-22T02:49:46.631Z,100312.22
2022-10-22T02:52:13.298Z,100311.31
2022-10-22T02:54:39.928Z,100319.06
2022-10-22T02:57:06.920Z,100316.44
2022-10-22T02:59:34.189Z,100303.16
2022-10-22T03:02:00.872Z,100311.06
2022-10-22T03:04:27.542Z,100312.72
2022-10-22T03:06:54.251Z,100327.63
2022-10-22T03:09:24.126Z,100322.22
2022-10-22T03:11:52.158Z,100321.28
2022-10-22T03:14:19.102Z,100321.19
2022-10-22T03:16:45.697Z,100326.34
2022-10-22T03:19:12.391Z,100319.16
2022-10-22T03:21:42.738Z,100317.34
2022-10-22T03:24:12.475Z,100312.97
2022-10-22T03:26:40.101Z,100305.00
2022-10-22T03:29:06.921Z,100300.56
2022-10-22T03:31:33.604Z,100315.59
2022-10-22T03:34:00.642Z,100314.50
2022-10-22T03:36:27.315Z,100312.03
2022-10-22T03:38:54.103Z,100325.22
2022-10-22T03:41:20.740Z,100325.22
2022-10-22T03:43:51.667Z,100319.06
2022-10-22T03:46:18.576Z,100316.47
2022-10-22T03:48:45.396Z,100323.56
2022-10-22T03:51:12.079Z,100327.09
2022-10-22T03:53:38.717Z,100319.13
2022-10-22T03:56:12.379Z,100332.38
2022-10-22T03:58:40.969Z,100326.22
2022-10-22T04:01:09.124Z,100328.69
2022-10-22T04:03:35.927Z,100333.19
2022-10-22T04:06:09.379Z,100326.03
2022-10-22T04:08:36.584Z,100332.97
2022-10-22T04:11:03.242Z,100339.22
2022-10-22T04:13:29.996Z,100344.53
2022-10-22T04:15:56.599Z,100340.09
2022-10-22T04:18:23.805Z,100342.53
2022-10-22T04:20:51.997Z,100340.81
2022-10-22T04:23:18.636Z,100350.53
2022-10-22T04:25:45.332Z,100342.59
2022-10-22T04:28:11.956Z,100352.34
2022-10-22T04:30:38.602Z,100353.25
2022-10-22T04:33:05.266Z,100352.41
2022-10-22T04:35:31.906Z,100351.56
2022-10-22T04:37:58.712Z,100355.06
2022-10-22T04:40:25.464Z,100355.97
2022-10-22T04:42:52.164Z,100363.94
2022-10-22T04:45:18.761Z,100355.97
2022-10-22T04:47:45.399Z,100343.66
2022-10-22T04:50:12.061Z,100348.97
2022-10-22T04:52:38.750Z,100346.16
2022-10-22T04:55:05.799Z,100348.03
2022-10-22T04:57:32.884Z,100356.81
2022-10-22T04:59:59.666Z,100355.13
2022-10-22T05:02:26.665Z,100353.34
2022-10-22T05:04:53.338Z,100363.13
2022-10-22T05:07:19.962Z,100358.63
2022-10-22T05:09:46.558Z,100355.13
2022-10-22T05:12:13.270Z,100357.81
2022-10-22T05:14:43.959Z,100354.38
2022-10-22T05:17:11.806Z,100349.06
2022-10-22T05:19:38.436Z,100350.78
2022-10-22T05:22:05.860Z,100354.38
2022-10-22T05:24:33.598Z,100350.84
2022-10-22T05:27:00.728Z,100351.72
2022-10-22T05:29:27.705Z,100356.91
2022-10-22T05:31:54.391Z,100356.03
2022-10-22T05:34:21.076Z,100355.97
2022-10-22T05:36:47.817Z,100361.28
2022-10-22T05:39:14.470Z,100361.41
2022-10-22T05:41:41.555Z,100368.31
2022-10-22T05:44:08.166Z,100363.19
2022-10-22T05:46:36.036Z,100359.66
2022-10-22T05:49:04.889Z,100364.03
2022-10-22T05:51:32.714Z,100374.63
2022-10-22T05:54:01.507Z,100372.00
2022-10-22T05:56:29.942Z,100376.38
2022-10-22T05:58:56.755Z,100372.00
2022-10-22T06:01:31.335Z,100383.50
2022-10-22T06:04:04.279Z,100373.84
2022-10-22T06:06:38.506Z,100379.94
2022-10-22T06:09:06.584Z,100380.00
2022-10-22T06:11:35.163Z,100380.06
2022-10-22T06:14:02.297Z,100376.47
2022-10-22T06:16:30.051Z,100378.97
2022-10-22T06:18:58.780Z,100377.22
2022-10-22T06:21:25.464Z,100379.69
2022-10-22T06:23:52.087Z,100381.53
2022-10-22T06:26:18.821Z,100384.19
2022-10-22T06:28:45.462Z,100381.38
2022-10-22T06:31:12.097Z,100387.47
2022-10-22T06:33:42.403Z,100385.81
2022-10-22T06:36:14.990Z,100385.75
2022-10-22T06:38:42.261Z,100390.97
2022-10-22T06:41:14.411Z,100391.72
2022-10-22T06:43:45.226Z,100394.22
2022-10-22T06:46:14.825Z,100395.09
2022-10-22T06:48:49.720Z,100396.81
2022-10-22T06:51:16.562Z,100402.06
2022-10-22T06:53:43.247Z,100407.22
2022-10-22T06:56:14.721Z,100405.53
2022-10-22T06:58:41.546Z,100417.84
2022-10-22T07:01:12.941Z,100422.03
2022-10-22T07:03:40.800Z,100417.56
2022-10-22T07:06:12.397Z,100419.34
2022-10-22T07:08:39.752Z,100416.53
2022-10-22T07:11:18.332Z,100418.41
2022-10-22T07:13:45.748Z,100422.78
2022-10-22T07:16:12.784Z,100434.00
2022-10-22T07:18:39.854Z,100436.53
2022-10-22T07:21:07.795Z,100437.44
2022-10-22T07:23:34.605Z,100435.59
2022-10-22T07:26:06.769Z,100438.16
2022-10-22T07:28:34.815Z,100437.47
2022-10-22T07:31:01.568Z,100442.13
2022-10-22T07:33:28.264Z,100433.25
2022-10-22T07:35:59.904Z,100438.22
2022-10-22T07:38:27.002Z,100442.72
2022-10-22T07:40:53.833Z,100442.50
2022-10-22T07:43:21.042Z,100448.66
2022-10-22T07:45:47.794Z,100452.25
2022-10-22T07:48:14.573Z,100452.34
2022-10-22T07:50:41.396Z,100454.75
2022-10-22T07:53:08.400Z,100461.53
2022-10-22T07:55:35.977Z,100464.78
2022-10-22T07:58:02.742Z,100463.25
2022-10-22T08:00:29.377Z,100475.31
2022-10-22T08:02:56.031Z,100472.44
2022-10-22T08:05:22.638Z,100484.50
2022-10-22T08:07:49.286Z,100484.50
2022-10-22T08:10:15.935Z,100495.03
2022-10-22T08:12:42.971Z,100494.06
2022-10-22T08:15:10.004Z,100490.47
2022-10-22T08:17:37.013Z,100499.75
2022-10-22T08:20:04.397Z,100506.94
2022-10-22T08:22:31.045Z,100499.34
2022-10-22T08:24:57.637Z,100495.88
2022-10-22T08:27:24.332Z,100505.44
2022-10-22T08:29:50.998Z,100505.50
2022-10-22T08:32:17.753Z,100500.34
2022-10-22T08:34:44.484Z,100497.28
2022-10-22T08:37:14.314Z,100502.56
2022-10-22T08:39:42.565Z,100496.47
2022-10-22T08:42:42.230Z,100498.31
2022-10-22T08:45:29.360Z,100495.81
2022-10-22T08:48:14.771Z,100500.72
2022-10-22T08:50:45.662Z,100498.94
2022-10-22T08:53:27.956Z,100500.50
2022-10-22T08:55:54.690Z,100507.75
2022-10-22T08:58:40.403Z,100499.59
2022-10-22T09:01:14.281Z,100506.56
2022-10-22T09:03:57.787Z,100509.91
2022-10-22T09:06:27.067Z,100507.91
2022-10-22T09:08:54.497Z,100507.19
2022-10-22T09:11:24.127Z,100507.78
2022-10-22T09:13:51.573Z,100506.19
2022-10-22T09:16:50.757Z,100509.91
2022-10-22T09:19:45.218Z,100521.72
2022-10-22T09:22:36.834Z,100525.00
2022-10-22T09:25:22.343Z,100523.69
2022-10-22T09:27:49.804Z,100527.66
2022-10-22T09:30:19.732Z,100531.03
2022-10-22T09:32:46.696Z,100524.88
2022-10-22T09:35:15.157Z,100529.44
2022-10-22T09:37:50.668Z,100531.06
2022-10-22T09:40:26.550Z,100530.25
2022-10-22T09:42:53.159Z,100532.72
2022-10-22T09:45:23.749Z,100540.03
2022-10-22T09:48:01.556Z,100539.22
2022-10-22T09:50:42.686Z,100546.34
2022-10-22T09:53:22.149Z,100550.50
2022-10-22T09:55:58.069Z,100551.66
2022-10-22T09:58:24.908Z,100553.44
2022-10-22T10:00:55.970Z,100555.97
2022-10-22T10:03:25.070Z,100555.03
2022-10-22T10:05:54.980Z,100559.91
2022-10-22T10:08:22.417Z,100560.81
2022-10-22T10:10:50.523Z,100556.56
2022-10-22T10:13:29.083Z,100565.13
2022-10-22T10:16:12.455Z,100563.25
2022-10-22T10:19:00.410Z,100567.78
2022-10-22T10:21:35.458Z,100565.69
2022-10-22T10:24:29.103Z,100568.59
2022-10-22T10:27:02.740Z,100572.31
2022-10-22T10:29:45.404Z,100571.19
2022-10-22T10:32:44.290Z,100569.44
2022-10-22T10:35:25.992Z,100570.53
2022-10-22T10:38:31.646Z,100575.84
2022-10-22T10:41:23.126Z,100570.38
2022-10-22T10:44:14.374Z,100568.53
2022-10-22T10:47:04.641Z,100569.88
2022-10-22T10:49:33.738Z,100570.22
2022-10-22T10:52:25.550Z,100574.13
2022-10-22T10:55:04.374Z,100570.28
2022-10-22T10:57:46.449Z,100566.97
2022-10-22T11:00:19.708Z,100570.03
2022-10-22T11:03:27.305Z,100574.03
2022-10-22T11:06:03.529Z,100564.66
2022-10-22T11:08:32.594Z,100566.00
2022-10-22T11:11:12.978Z,100565.66
2022-10-22T11:13:52.360Z,100574.22
2022-10-22T11:16:23.292Z,100567.56
2022-10-22T11:19:03.518Z,100568.50
2022-10-22T11:21:57.900Z,100570.63
2022-10-22T11:24:38.352Z,100574.13
2022-10-22T11:27:10.406Z,100558.00
2022-10-22T11:29:43.240Z,100565.06
2022-10-22T11:32:17.626Z,100572.09
2022-10-22T11:34:50.864Z,100573.78
2022-10-22T11:37:17.815Z,100567.53
2022-10-22T11:40:15.247Z,100565.78
2022-10-22T11:42:48.154Z,100571.47
2022-10-22T11:45:14.703Z,100568.44
2022-10-22T11:47:59.400Z,100566.31
2022-10-22T11:50:28.844Z,100570.66
2022-10-22T11:53:02.774Z,100576.72
2022-10-22T11:55:48.726Z,100586.09
2022-10-22T11:58:34.276Z,100584.38
2022-10-22T12:01:10.150Z,100579.06
2022-10-22T12:03:43.943Z,100589.31
2022-10-22T12:06:15.379Z,100583.75
2022-10-22T12:08:54.487Z,100581.66
2022-10-22T12:11:47.755Z,100593.09
2022-10-22T12:14:28.089Z,100583.69
2022-10-22T12:17:13.003Z,100576.63
2022-10-22T12:19:42.116Z,100580.13
2022-10-22T12:22:13.678Z,100582.31
2022-10-22T12:24:46.415Z,100585.94
2022-10-22T12:27:35.819Z,100588.78
2022-10-22T12:30:17.452Z,100589.50
2022-10-22T12:32:44.151Z,100596.03
2022-10-22T12:35:19.537Z,100587.69
2022-10-22T12:37:49.703Z,100589.84
2022-10-22T12:40:31.082Z,100592.09
2022-10-22T12:43:02.778Z,100586.06
2022-10-22T12:45:31.663Z,100590.19
2022-10-22T12:48:00.107Z,100587.25
2022-10-22T12:50:54.150Z,100577.00
2022-10-22T12:53:24.599Z,100585.78
2022-10-22T12:55:53.684Z,100578.25
2022-10-22T12:58:23.219Z,100581.84
2022-10-22T13:00:57.340Z,100579.19
2022-10-22T13:03:31.399Z,100578.25
2022-10-22T13:06:11.030Z,100574.91
2022-10-22T13:08:38.842Z,100584.13
2022-10-22T13:11:10.694Z,100575.72
2022-10-22T13:13:40.378Z,100569.97
2022-10-22T13:16:14.286Z,100581.84
2022-10-22T13:18:40.893Z,100581.66
2022-10-22T13:21:22.986Z,100585.28
2022-10-22T13:23:55.449Z,100584.56
2022-10-22T13:26:25.637Z,100581.91
2022-10-22T13:28:54.396Z,100585.47
2022-10-22T13:31:24.137Z,100581.94
2022-10-22T13:33:56.944Z,100582.19
2022-10-22T13:36:24.053Z,100591.22
2022-10-22T13:38:50.878Z,100592.66
2022-10-22T13:41:26.689Z,100586.66
2022-10-22T13:43:53.964Z,100585.44
2022-10-22T13:46:20.989Z,100587.59
2022-10-22T13:48:48.754Z,100582.56
2022-10-22T13:51:17.785Z,100591.13
2022-10-22T13:53:46.212Z,100587.88
2022-10-22T13:56:17.265Z,100580.25
2022-10-22T13:58:45.097Z,100584.16
2022-10-22T14:01:23.272Z,100582.59
2022-10-22T14:03:52.923Z,100583.66
2022-10-22T14:06:21.289Z,100585.25
2022-10-22T14:08:56.222Z,100589.28
2022-10-22T14:11:23.010Z,100592.31
2022-10-22T14:13:49.742Z,100587.03
2022-10-22T14:16:23.182Z,100589.78
2022-10-22T14:18:50.315Z,100585.19
2022-10-22T14:21:17.627Z,100597.94
2022-10-22T14:23:46.421Z,100604.81
2022-10-22T14:26:22.372Z,100606.72
2022-10-22T14:29:08.683Z,100604.94
2022-10-22T14:31:37.414Z,100600.25
2022-10-22T14:34:04.181Z,100602.25
2022-10-22T14:36:30.842Z,100597.00
2022-10-22T14:38:57.493Z,100607.13
2022-10-22T14:41:26.138Z,100607.91
2022-10-22T14:43:52.897Z,100610.16
2022-10-22T14:46:19.739Z,100614.69
2022-10-22T14:48:46.545Z,100620.16
2022-10-22T14:51:15.703Z,100621.22
2022-10-22T14:53:42.422Z,100624.31
2022-10-22T14:56:13.526Z,100619.00
2022-10-22T14:58:40.856Z,100620.44
2022-10-22T15:01:08.453Z,100616.13
2022-10-22T15:03:35.551Z,100613.00
2022-10-22T15:06:02.193Z,100617.47
2022-10-22T15:08:29.047Z,100618.06
2022-10-22T15:11:13.926Z,100624.72
2022-10-22T15:13:42.087Z,100620.66
2022-10-22T15:16:15.502Z,100628.25
2022-10-22T15:18:42.345Z,100631.31
2022-10-22T15:21:18.664Z,100629.09
2022-10-22T15:23:45.302Z,100633.22
2022-10-22T15:26:13.103Z,100633.66
2022-10-22T15:28:41.873Z,100632.09
2022-10-22T15:31:12.532Z,100640.47
2022-10-22T15:33:40.983Z,100645.28
2022-10-22T15:36:12.798Z,100639.44
2022-10-22T15:38:39.506Z,100647.06
2022-10-22T15:41:07.922Z,100649.28
2022-10-22T15:43:34.898Z,100646.16
2022-10-22T15:46:09.466Z,100648.19
2022-10-22T15:48:36.091Z,100649.22
2022-10-22T15:51:11.402Z,100658.38
2022-10-22T15:53:38.068Z,100655.25
2022-10-22T15:56:05.019Z,100653.78
2022-10-22T15:58:31.646Z,100654.91
2022-10-22T16:01:09.491Z,100660.63
2022-10-22T16:03:36.521Z,100657.41
2022-10-22T16:06:04.065Z,100656.72
2022-10-22T16:08:31.971Z,100666.66
2022-10-22T16:10:59.054Z,100665.13
2022-10-22T16:13:26.490Z,100663.53
2022-10-22T16:15:54.550Z,100672.53
2022-10-22T16:18:21.667Z,100672.78
2022-10-22T16:20:48.268Z,100669.56
2022-10-22T16:23:18.676Z,100675.09
2022-10-22T16:25:46.206Z,100673.63
2022-10-22T16:28:13.157Z,100684.41
2022-10-22T16:30:40.276Z,100682.72
2022-10-22T16:33:08.297Z,100682.84
2022-10-22T16:35:35.052Z,100681.22
2022-10-22T16:38:01.821Z,100686.75
2022-10-22T16:40:29.246Z,100682.44
2022-10-22T16:42:55.921Z,100684.16
2022-10-22T16:45:22.693Z,100689.72
2022-10-22T16:47:50.449Z,100697.91
2022-10-22T16:50:17.170Z,100691.06
2022-10-22T16:52:43.816Z,100688.59
2022-10-22T16:55:10.454Z,100692.25
2022-10-22T16:57:37.138Z,100698.63
2022-10-22T17:00:05.668Z,100702.25
2022-10-22T17:02:32.289Z,100697.09
2022-10-22T17:04:58.921Z,100699.91
2022-10-22T17:07:25.539Z,100700.81
2022-10-22T17:09:52.210Z,100702.75
2022-10-22T17:12:18.815Z,100701.16
2022-10-22T17:14:45.472Z,100711.00
2022-10-22T17:17:12.110Z,100708.41
2022-10-22T17:19:38.929Z,100712.09
2022-10-22T17:22:05.703Z,100715.66
2022-10-22T17:24:32.332Z,100715.75
2022-10-22T17:26:59.019Z,100711.31
2022-10-22T17:29:25.706Z,100721.00
2022-10-22T17:31:52.704Z,100723.75
2022-10-22T17:34:19.411Z,100722.06
2022-10-22T17:36:46.131Z,100720.38
2022-10-22T17:39:16.557Z,100728.31
2022-10-22T17:41:43.227Z,100731.91
2022-10-22T17:44:17.154Z,100731.00
2022-10-22T17:46:45.265Z,100736.34
2022-10-22T17:49:19.872Z,100738.13
2022-10-22T17:51:47.031Z,100742.56
2022-10-22T17:54:14.084Z,100739.84
2022-10-22T17:56:40.763Z,100741.59
2022-10-22T17:59:08.621Z,100744.19
2022-10-22T18:01:37.736Z,100749.59
2022-10-22T18:04:06.542Z,100753.25
2022-10-22T18:06:33.997Z,100757.66
2022-10-22T18:09:04.902Z,100762.09
2022-10-22T18:11:32.569Z,100752.56
2022-10-22T18:13:59.261Z,100761.38
2022-10-22T18:16:26.873Z,100761.41
2022-10-22T18:18:55.728Z,100764.06
2022-10-22T18:21:24.435Z,100773.88
2022-10-22T18:23:51.431Z,100757.13
2022-10-22T18:26:20.347Z,100763.31
2022-10-22T18:28:49.536Z,100769.56
2022-10-22T18:31:18.901Z,100771.34
2022-10-22T18:33:46.321Z,100768.78
2022-10-22T18:36:16.243Z,100769.72
2022-10-22T18:38:42.875Z,100771.50
2022-10-22T18:41:13.524Z,100773.28
2022-10-22T18:43:41.210Z,100770.78
2022-10-22T18:46:11.222Z,100772.53
2022-10-22T18:48:38.258Z,100776.97
2022-10-22T18:51:08.393Z,100774.31
2022-10-22T18:53:36.637Z,100768.16
2022-10-22T18:56:08.077Z,100779.63
2022-10-22T18:58:46.333Z,100778.63
2022-10-22T19:01:15.463Z,100775.94
2022-10-22T19:03:42.190Z,100772.47
2022-10-22T19:06:08.981Z,100769.75
2022-10-22T19:08:36.825Z,100767.09
2022-10-22T19:11:10.758Z,100779.41
2022-10-22T19:13:42.644Z,100779.38
2022-10-22T19:16:13.311Z,100776.72
2022-10-22T19:18:40.011Z,100779.41
2022-10-22T19:21:09.858Z,100776.81
2022-10-22T19:26:21.581Z,100768.25
2022-10-22T19:28:51.326Z,100770.81
2022-10-22T19:31:20.361Z,100774.53
2022-10-22T19:33:48.102Z,100773.75
2022-10-22T19:36:16.915Z,100775.59
2022-10-22T19:38:45.816Z,100774.78
2022-10-22T19:41:14.393Z,100783.63
2022-10-22T19:43:42.331Z,100786.34
2022-10-22T19:46:14.415Z,100777.56
2022-10-22T19:48:47.030Z,100781.22
2022-10-22T19:51:25.591Z,100790.97
2022-10-22T19:54:00.152Z,100787.59
2022-10-22T19:56:29.998Z,100786.84
2022-10-22T19:58:58.928Z,100784.25
2022-10-22T20:01:26.721Z,100801.94
2022-10-22T20:03:56.375Z,100805.53
2022-10-22T20:06:25.271Z,100807.28
2022-10-22T20:08:55.952Z,100809.13
2022-10-22T20:11:26.324Z,100808.34
2022-10-22T20:13:53.491Z,100812.72
2022-10-22T20:16:23.486Z,100817.13
2022-10-22T20:18:52.452Z,100812.88
2022-10-22T20:21:19.616Z,100817.28
2022-10-22T20:23:47.128Z,100821.72
2022-10-22T20:26:14.015Z,100827.94
2022-10-22T20:28:40.681Z,100824.47
2022-10-22T20:31:12.054Z,100835.06
2022-10-22T20:33:38.990Z,100833.41
2022-10-22T20:36:08.100Z,100833.44
2022-10-22T20:41:12.892Z,100841.38
2022-10-22T20:43:39.633Z,100844.91
2022-10-22T20:46:06.321Z,100845.81
2022-10-22T20:48:33.527Z,100847.59
2022-10-22T20:51:00.967Z,100852.97
2022-10-22T20:53:28.188Z,100850.34
2022-10-22T20:55:57.694Z,100850.41
2022-10-22T20:58:26.846Z,100854.81
2022-10-22T21:00:58.245Z,100854.00
2022-10-22T21:03:25.218Z,100859.22
2022-10-22T21:05:51.974Z,100866.41
2022-10-22T21:08:18.786Z,100867.34
2022-10-22T21:10:49.344Z,100867.34
2022-10-22T21:13:16.813Z,100870.06
2022-10-22T21:15:43.500Z,100878.91
2022-10-22T21:18:10.709Z,100880.66
2022-10-22T21:20:41.542Z,100880.63
2022-10-22T21:23:08.710Z,100878.00
2022-10-22T21:25:39.489Z,100886.81
2022-10-22T21:28:08.634Z,100882.34
2022-10-22T21:30:35.455Z,100880.63
2022-10-22T21:33:02.104Z,100881.50
2022-10-22T21:35:28.827Z,100881.47
2022-10-22T21:37:55.501Z,100890.25
2022-10-22T21:40:22.426Z,100878.59
2022-10-22T21:42:50.298Z,100878.50
2022-10-22T21:45:19.996Z,100881.97
2022-10-22T21:47:48.895Z,100883.63
2022-10-22T21:50:15.904Z,100881.84
2022-10-22T21:52:42.760Z,100885.41
2022-10-22T21:55:09.652Z,100882.91
2022-10-22T21:57:36.341Z,100890.81
2022-10-22T22:00:06.585Z,100892.59
2022-10-22T22:02:33.648Z,100895.34
2022-10-22T22:05:00.347Z,100890.97
2022-10-22T22:07:27.048Z,100897.06
2022-10-22T22:09:53.777Z,100908.53
2022-10-22T22:12:21.240Z,100904.16
2022-10-22T22:14:47.921Z,100899.78
2022-10-22T22:17:16.646Z,100897.13
2022-10-22T22:19:43.384Z,100898.03
2022-10-22T22:22:10.130Z,100891.09
2022-10-22T22:24:38.287Z,100895.44
2022-10-22T22:27:04.924Z,100906.88
2022-10-22T22:29:32.387Z,100905.19
2022-10-22T22:31:58.986Z,100906.03
2022-10-22T22:34:25.833Z,100904.22
2022-10-22T22:36:52.928Z,100903.34
2022-10-22T22:39:22.517Z,100903.31
2022-10-22T22:41:50.077Z,100904.22
2022-10-22T22:44:17.384Z,100903.22
2022-10-22T22:46:46.622Z,100898.88
2022-10-22T22:49:13.926Z,100894.56
2022-10-22T22:51:40.657Z,100895.44
2022-10-22T22:54:07.676Z,100894.59
2022-10-22T22:56:34.657Z,100890.22
2022-10-22T22:59:05.342Z,100899.03
2022-10-22T23:01:35.734Z,100898.16
2022-10-22T23:04:16.305Z,100890.22
2022-10-22T23:06:42.982Z,100885.81
2022-10-22T23:09:11.866Z,100878.78
2022-10-22T23:11:39.330Z,100890.19
2022-10-22T23:14:07.739Z,100877.03
2022-10-22T23:16:37.779Z,100883.13
2022-10-22T23:19:09.202Z,100884.88
2022-10-22T23:21:37.935Z,100872.53
2022-10-22T23:24:07.447Z,100881.28
2022-10-22T23:26:36.848Z,100882.13
2022-10-22T23:29:05.701Z,100876.84
2022-10-22T23:31:32.587Z,100881.22
2022-10-22T23:33:59.376Z,100882.94
2022-10-22T23:36:28.911Z,100889.97
2022-10-22T23:38:55.812Z,100884.66
2022-10-22T23:41:22.579Z,100889.88
2022-10-22T23:43:50.111Z,100881.03
2022-10-22T23:46:16.811Z,100883.66
2022-10-22T23:48:43.791Z,100890.69
2022-10-22T23:51:15.870Z,100885.34
2022-10-22T23:53:43.717Z,100880.91
2022-10-22T23:56:16.333Z,100881.78
2022-10-22T23:58:43.547Z,100886.16
